Time,TemperatureF,DewpointF,PressureIn,WindDirection,WindDirectionDegrees,WindSpeedMPH,WindSpeedGustMPH,Humidity,HourlyPrecipIn,Conditions,Clouds,dailyrainin,SoftwareType,DateUTC
2013-06-15 06:23:00,69.1,68.5,29.91,NE,45,0.0,-999.0,98,-99.99,,,0.00,Acu-Link.com,2013-06-15 16:23:00,
2013-06-15 06:39:00,69.3,68.7,29.91,NE,45,0.0,-999.0,98,-99.99,,,0.00,Acu-Link.com,2013-06-15 16:39:00,
2013-06-15 06:54:00,69.8,69.2,29.90,ENE,67,0.0,-999.0,98,-99.99,,,0.00,Acu-Link.com,2013-06-15 16:54:00,
2013-06-15 07:09:00,70.0,69.4,29.90,ESE,112,0.0,-999.0,98,-99.99,,,0.00,Acu-Link.com,2013-06-15 17:09:00,
2013-06-15 07:25:00,70.9,70.3,29.91,NNE,22,0.0,-999.0,98,-99.99,,,0.00,Acu-Link.com,2013-06-15 17:25:00,
2013-06-15 07:40:00,70.9,70.3,29.90,NE,45,0.0,-999.0,98,-99.99,,,0.00,Acu-Link.com,2013-06-15 17:40:00,
2013-06-15 07:55:00,71.1,70.5,29.92,SSW,202,0.0,-999.0,98,-99.99,,,0.00,Acu-Link.com,2013-06-15 17:55:00,
2013-06-15 08:11:00,71.6,69.8,29.92,NNE,22,1.7,-999.0,94,-99.99,,,0.01,Acu-Link.com,2013-06-15 18:11:00,
2013-06-15 08:26:00,72.1,71.5,29.93,North,0,0.0,-999.0,98,-99.99,,,0.04,Acu-Link.com,2013-06-15 18:26:00,
2013-06-15 08:41:00,73.0,72.4,29.91,North,0,1.7,-999.0,98,-99.99,,,0.04,Acu-Link.com,2013-06-15 18:41:00,
2013-06-15 08:56:00,73.2,72.6,29.90,NNW,337,2.2,-999.0,98,-99.99,,,0.04,Acu-Link.com,2013-06-15 18:56:00,
2013-06-15 09:12:00,72.9,70.4,29.90,West,270,2.2,-999.0,92,-99.99,,,0.04,Acu-Link.com,2013-06-15 19:12:00,
2013-06-15 09:27:00,73.4,72.8,29.91,West,270,2.2,-999.0,98,-99.99,,,0.04,Acu-Link.com,2013-06-15 19:27:00,
2013-06-15 09:42:00,73.2,67.7,29.90,NE,45,1.1,-999.0,83,-99.99,,,0.04,Acu-Link.com,2013-06-15 19:42:00,
2013-06-15 09:57:00,75.0,69.8,29.89,NNW,337,2.7,-999.0,84,-99.99,,,0.04,Acu-Link.com,2013-06-15 19:57:00,
2013-06-15 10:13:00,75.0,66.9,29.88,NNE,22,2.7,-999.0,76,-99.99,,,0.04,Acu-Link.com,2013-06-15 20:13:00,
2013-06-15 10:28:00,75.2,66.7,29.88,NE,45,2.2,-999.0,75,-99.99,,,0.04,Acu-Link.com,2013-06-15 20:28:00,
2013-06-15 10:43:00,75.2,65.9,29.88,NW,315,1.7,-999.0,73,-99.99,,,0.04,Acu-Link.com,2013-06-15 20:43:00,
2013-06-15 10:58:00,76.5,66.4,29.87,NNE,22,2.2,-999.0,71,-99.99,,,0.04,Acu-Link.com,2013-06-15 20:58:00,
2013-06-15 11:13:00,75.9,66.2,29.87,SE,135,1.7,-999.0,72,-99.99,,,0.04,Acu-Link.com,2013-06-15 21:13:00,
2013-06-15 11:29:00,76.6,65.7,29.87,NNE,22,4.2,-999.0,69,-99.99,,,0.04,Acu-Link.com,2013-06-15 21:29:00,
2013-06-15 11:44:00,76.6,66.5,29.87,North,0,1.7,-999.0,71,-99.99,,,0.04,Acu-Link.com,2013-06-15 21:44:00,
2013-06-15 11:59:00,77.2,66.6,29.87,NE,45,2.2,-999.0,70,-99.99,,,0.04,Acu-Link.com,2013-06-15 21:59:00,
2013-06-15 22:08:00,70.9,70.3,29.89,ENE,67,0.0,-999.0,98,-99.99,,,0.04,Acu-Link.com,2013-06-16 08:08:00,
2013-06-15 22:23:00,70.7,70.1,29.88,NE,45,0.0,-999.0,98,-99.99,,,0.04,Acu-Link.com,2013-06-16 08:23:00,
2013-06-15 22:39:00,70.3,69.7,29.88,NNE,22,0.0,-999.0,98,-99.99,,,0.05,Acu-Link.com,2013-06-16 08:39:00,
2013-06-15 22:54:00,70.0,69.4,29.87,ENE,67,1.7,-999.0,98,-99.99,,,0.05,Acu-Link.com,2013-06-16 08:54:00,
2013-06-15 23:09:00,69.8,69.2,29.87,NE,45,1.7,-999.0,98,-99.99,,,0.05,Acu-Link.com,2013-06-16 09:09:00,
2013-06-15 23:25:00,69.8,69.2,29.88,WNW,292,0.0,-999.0,98,-99.99,,,0.05,Acu-Link.com,2013-06-16 09:25:00,
2013-06-15 23:40:00,69.8,69.2,29.88,North,0,0.0,-999.0,98,-99.99,,,0.05,Acu-Link.com,2013-06-16 09:40:00,